Big Indian, NY (12410)

8:21 AM EDT on March 27, 2015 (GMT -0400)
Big Indian | | Change Station
CLOSE
Current Station
Personal Weather Station
Location: Big Indian, NY
Elevation: 1315 ft
Nearby Weather Stations

Elev 1315 ft 42.09 °N, 74.45 °W | Updated 6 minutes ago

Overcast
Overcast
34.9 °F
Feels Like 35 °F
N
3.0
Wind Variable Wind from North
Gusts 8.0 mph

Today
High -- | Low -- °F
--% Chance of Precip.
Yesterday
High -- | Low -- °F
Precip. -- in
6:49 AM 7:17 PM
First Quarter, 52% visible
Pressure 29.72 in
Visibility 8.0 miles
Clouds Few 1400 ft
Overcast 2200 ft
Windchill 35 °F
Dew Point 31 °F
Humidity 87%
Rainfall 0.00 in
Snow Depth Not available.
UV 0 out of 12
Pollen 1.50 out of 12
Air Quality Not available.
Flu Activity Not available.
METAR KMSV 271215Z AUTO 33004KT 8SM FEW014 OVC022 01/M01 A2972 RMK AO1

More Conditions Fewer Conditions

Pressure 29.72 in
Visibility 8.0 miles
Clouds Few 1400 ft
Overcast 2200 ft
Windchill 35 °F
Dew Point 31 °F
Humidity 87%
Rainfall 0.00 in
Snow Depth Not available.
UV 0 out of 12
Pollen 1.50 out of 12
Air Quality Not available.
Flu Activity Not available.
METAR KMSV 271215Z AUTO 33004KT 8SM FEW014 OVC022 01/M01 A2972 RMK AO1

More Conditions Fewer Conditions

10-Day Weather Forecast

Almanac

Astronomy

Mar. 27, 2015 Rise Set
Actual Time
Civil Twilight
Nautical Twilight
Astronomical Twilight
Moon
Length of Visible Light
Length of Day
Tomorrow will be .
, % of the Moon is Illuminated

Today's Extremes

State Highs State Lows

Community

WunderPhotos

Upload Photos

1,808,715 photos uploaded!

WunderBlogs® & News

Nearby

Air Quality

  Air Quality AQ Index Pollutant
Not available.

Snow Depth

Station Depth Elevation

Earthquake Activity

City Distance Mag. Time & Date
Minimum magnitude displayed is 2.5.

Coastal Water Temperatures

Place Temperature

Stations

Nearby Weather Stations

Station Location Temp. Windchill Dew Point Humidity Wind Precip. Elev Updated Type